createdAt,value
2023-07-21T00:01:00.247Z,24.20
2023-07-21T00:03:27.218Z,24.30
2023-07-21T00:05:54.250Z,24.40
2023-07-21T00:08:22.669Z,24.50
2023-07-21T00:10:49.705Z,24.50
2023-07-21T00:13:16.682Z,24.50
2023-07-21T00:15:46.346Z,24.40
2023-07-21T00:18:14.023Z,24.40
2023-07-21T00:20:40.997Z,24.40
2023-07-21T00:23:08.005Z,24.30
2023-07-21T00:25:35.015Z,24.30
2023-07-21T00:28:02.427Z,24.20
2023-07-21T00:30:29.778Z,24.10
2023-07-21T00:32:58.790Z,24.10
2023-07-21T00:35:25.892Z,24.10
2023-07-21T00:37:52.882Z,24.00
2023-07-21T00:40:20.363Z,24.00
2023-07-21T00:42:47.562Z,24.00
2023-07-21T00:45:15.772Z,24.00
2023-07-21T00:47:42.999Z,23.90
2023-07-21T00:50:10.176Z,24.00
2023-07-21T00:52:38.139Z,23.90
2023-07-21T00:55:05.480Z,23.90
2023-07-21T00:57:32.273Z,23.90
2023-07-21T00:59:59.265Z,23.80
2023-07-21T01:02:26.377Z,23.80
2023-07-21T01:05:01.188Z,23.80
2023-07-21T01:07:29.296Z,23.80
2023-07-21T01:09:56.358Z,23.80
2023-07-21T01:12:23.474Z,23.80
2023-07-21T01:14:50.912Z,23.70
2023-07-21T01:17:17.661Z,23.70
2023-07-21T01:19:48.553Z,23.70
2023-07-21T01:22:30.410Z,23.70
2023-07-21T01:24:57.945Z,23.70
2023-07-21T01:27:25.326Z,23.80
2023-07-21T01:29:52.626Z,23.90
2023-07-21T01:32:20.020Z,24.00
2023-07-21T01:34:47.033Z,24.00
2023-07-21T01:37:15.152Z,24.20
2023-07-21T01:39:42.129Z,24.20
2023-07-21T01:42:09.240Z,24.20
2023-07-21T01:44:36.247Z,24.20
2023-07-21T01:47:03.010Z,24.10
2023-07-21T01:49:32.298Z,24.10
2023-07-21T01:51:59.944Z,24.00
2023-07-21T01:54:38.151Z,24.00
2023-07-21T01:57:05.538Z,24.00
2023-07-21T01:59:32.583Z,24.00
2023-07-21T02:01:59.668Z,23.90
2023-07-21T02:04:26.578Z,23.80
2023-07-21T02:06:54.003Z,23.90
2023-07-21T02:09:21.876Z,23.80
2023-07-21T02:11:50.199Z,23.80
2023-07-21T02:14:17.801Z,23.80
2023-07-21T02:16:47.021Z,23.70
2023-07-21T02:19:16.060Z,23.70
2023-07-21T02:21:43.424Z,23.70
2023-07-21T02:24:10.198Z,23.70
2023-07-21T02:26:37.570Z,23.70
2023-07-21T02:29:04.560Z,23.70
2023-07-21T02:31:31.990Z,23.60
2023-07-21T02:33:59.554Z,23.60
2023-07-21T02:36:26.743Z,23.60
2023-07-21T02:38:54.007Z,23.60
2023-07-21T02:41:21.014Z,23.60
2023-07-21T02:43:48.523Z,23.50
2023-07-21T02:46:15.726Z,23.50
2023-07-21T02:48:42.577Z,23.50
2023-07-21T02:51:09.566Z,23.50
2023-07-21T02:53:36.413Z,23.50
2023-07-21T02:56:05.268Z,23.50
2023-07-21T02:58:33.713Z,23.40
2023-07-21T03:01:01.097Z,23.60
2023-07-21T03:03:28.225Z,23.70
2023-07-21T03:05:55.117Z,23.80
2023-07-21T03:08:28.334Z,23.90
2023-07-21T03:10:56.750Z,23.90
2023-07-21T03:13:26.679Z,23.90
2023-07-21T03:15:53.881Z,23.80
2023-07-21T03:18:20.693Z,23.80
2023-07-21T03:20:50.620Z,23.80
2023-07-21T03:23:17.512Z,23.70
2023-07-21T03:25:44.833Z,23.60
2023-07-21T03:28:11.886Z,23.60
2023-07-21T03:30:39.054Z,23.50
2023-07-21T03:33:05.909Z,23.50
2023-07-21T03:35:32.935Z,23.50
2023-07-21T03:38:00.047Z,23.30
2023-07-21T03:40:27.441Z,23.20
2023-07-21T03:42:54.685Z,23.00
2023-07-21T03:45:23.386Z,22.80
2023-07-21T03:47:50.418Z,22.70
2023-07-21T03:50:17.557Z,22.50
2023-07-21T03:52:44.611Z,22.50
2023-07-21T03:55:12.010Z,22.40
2023-07-21T03:57:41.189Z,22.30
2023-07-21T04:00:09.248Z,22.30
2023-07-21T04:02:36.278Z,22.30
2023-07-21T04:05:03.135Z,22.20
2023-07-21T04:07:30.195Z,22.20
2023-07-21T04:09:57.546Z,22.10
2023-07-21T04:12:25.066Z,22.10
2023-07-21T04:14:52.177Z,22.00
2023-07-21T04:17:19.004Z,21.90
2023-07-21T04:19:46.441Z,21.90
2023-07-21T04:22:14.506Z,21.90
2023-07-21T04:24:41.558Z,21.80
2023-07-21T04:27:08.601Z,21.80
2023-07-21T04:29:37.492Z,21.80
2023-07-21T04:32:06.465Z,21.80
2023-07-21T04:34:33.544Z,21.90
2023-07-21T04:37:01.151Z,21.90
2023-07-21T04:39:28.213Z,22.00
2023-07-21T04:41:55.238Z,22.00
2023-07-21T04:44:23.037Z,22.10
2023-07-21T04:46:50.057Z,22.10
2023-07-21T04:49:17.187Z,22.10
2023-07-21T04:51:44.238Z,22.10
2023-07-21T04:54:13.426Z,22.10
2023-07-21T04:56:40.352Z,22.10
2023-07-21T04:59:07.917Z,22.10
2023-07-21T05:01:34.683Z,22.10
2023-07-21T05:04:01.803Z,22.10
2023-07-21T05:06:28.963Z,22.10
2023-07-21T05:08:56.062Z,22.10
2023-07-21T05:11:23.109Z,22.10
2023-07-21T05:13:50.962Z,22.10
2023-07-21T05:16:19.177Z,22.20
2023-07-21T05:18:46.370Z,22.20
2023-07-21T05:21:14.845Z,22.40
2023-07-21T05:23:42.890Z,22.50
2023-07-21T05:26:09.784Z,22.70
2023-07-21T05:28:36.917Z,22.80
2023-07-21T05:31:05.281Z,22.80
2023-07-21T05:33:32.378Z,23.00
2023-07-21T05:36:09.754Z,23.10
2023-07-21T05:38:36.851Z,23.20
2023-07-21T05:41:03.904Z,23.20
2023-07-21T05:43:30.956Z,23.20
2023-07-21T05:45:57.952Z,23.30
2023-07-21T05:48:27.650Z,23.50
2023-07-21T05:50:54.477Z,23.70
2023-07-21T05:53:21.838Z,23.80
2023-07-21T05:55:49.179Z,23.90
2023-07-21T05:58:16.312Z,24.10
2023-07-21T06:00:43.166Z,24.20
2023-07-21T06:03:10.239Z,24.40
2023-07-21T06:05:37.768Z,24.40
2023-07-21T06:08:08.481Z,24.40
2023-07-21T06:10:35.537Z,24.40
2023-07-21T06:13:02.576Z,24.40
2023-07-21T06:15:30.025Z,24.40
2023-07-21T06:17:57.124Z,24.40
2023-07-21T06:20:26.103Z,24.40
2023-07-21T06:22:53.331Z,24.30
2023-07-21T06:25:20.443Z,24.30
2023-07-21T06:27:51.976Z,24.30
2023-07-21T06:30:18.837Z,24.30
2023-07-21T06:32:45.922Z,24.30
2023-07-21T06:35:12.951Z,24.30
2023-07-21T06:37:40.053Z,24.30
2023-07-21T06:40:08.159Z,24.30
2023-07-21T06:42:35.550Z,24.30
2023-07-21T06:45:02.401Z,24.30
2023-07-21T06:47:29.427Z,24.30
2023-07-21T06:49:56.469Z,24.30
2023-07-21T06:52:23.271Z,24.30
2023-07-21T06:54:50.347Z,24.30
2023-07-21T06:57:17.127Z,24.30
2023-07-21T06:59:44.536Z,24.30
2023-07-21T07:02:11.915Z,24.30
2023-07-21T07:04:39.162Z,24.30
2023-07-21T07:07:07.336Z,24.30
2023-07-21T07:09:34.676Z,24.30
2023-07-21T07:12:04.359Z,24.30
2023-07-21T07:14:31.661Z,24.40
2023-07-21T07:16:58.503Z,24.50
2023-07-21T07:19:28.208Z,24.60
2023-07-21T07:21:55.640Z,24.70
2023-07-21T07:24:22.726Z,24.80
2023-07-21T07:26:49.944Z,24.90
2023-07-21T07:29:22.267Z,25.00
2023-07-21T07:31:49.479Z,24.90
2023-07-21T07:34:16.485Z,24.90
2023-07-21T07:36:43.607Z,24.90
2023-07-21T07:39:13.157Z,24.90
2023-07-21T07:41:40.760Z,24.80
2023-07-21T07:44:10.390Z,24.80
2023-07-21T07:46:37.461Z,24.80
2023-07-21T07:49:04.833Z,24.80
2023-07-21T07:51:31.653Z,24.80
2023-07-21T07:53:59.123Z,24.80
2023-07-21T07:56:27.705Z,24.80
2023-07-21T07:58:55.272Z,24.80
2023-07-21T08:01:22.141Z,24.80
2023-07-21T08:03:49.393Z,24.70
2023-07-21T08:06:16.430Z,24.70
2023-07-21T08:08:43.735Z,24.70
2023-07-21T08:11:11.130Z,24.70
2023-07-21T08:13:39.941Z,24.70
2023-07-21T08:16:11.131Z,24.70
2023-07-21T08:18:38.055Z,24.70
2023-07-21T08:21:17.607Z,24.70
2023-07-21T08:23:44.712Z,24.70
2023-07-21T08:26:11.527Z,24.60
2023-07-21T08:28:38.562Z,24.70
2023-07-21T08:31:05.444Z,24.80
2023-07-21T08:33:32.156Z,24.90
2023-07-21T08:35:59.165Z,24.90
2023-07-21T08:38:26.242Z,25.00
2023-07-21T08:40:56.310Z,25.10
2023-07-21T08:43:23.365Z,25.20
2023-07-21T08:45:50.143Z,25.20
2023-07-21T08:48:19.111Z,25.20
2023-07-21T08:50:47.271Z,25.20
2023-07-21T08:53:16.080Z,25.20
2023-07-21T08:55:43.678Z,25.10
2023-07-21T08:58:10.715Z,25.10
2023-07-21T09:00:38.315Z,25.00
2023-07-21T09:03:05.502Z,25.00
2023-07-21T09:05:32.852Z,25.00
2023-07-21T09:07:59.651Z,25.00
2023-07-21T09:10:35.891Z,25.00
2023-07-21T09:13:03.100Z,25.00
2023-07-21T09:15:29.996Z,24.90
2023-07-21T09:17:57.179Z,25.00
2023-07-21T09:20:24.209Z,24.90
2023-07-21T09:22:51.218Z,24.90
2023-07-21T09:25:22.144Z,24.90
2023-07-21T09:27:59.026Z,24.90
2023-07-21T09:30:26.282Z,24.90
2023-07-21T09:32:54.397Z,24.90
2023-07-21T09:35:21.183Z,24.90
2023-07-21T09:37:49.989Z,24.80
2023-07-21T09:40:17.104Z,24.80
2023-07-21T09:42:44.798Z,24.90
2023-07-21T09:45:11.745Z,24.90
2023-07-21T09:47:39.779Z,25.00
2023-07-21T09:50:07.796Z,25.10
2023-07-21T09:52:40.039Z,25.20
2023-07-21T09:55:11.659Z,25.30
2023-07-21T09:57:41.512Z,25.30
2023-07-21T10:00:11.003Z,25.30
2023-07-21T10:02:38.447Z,25.30
2023-07-21T10:05:10.681Z,25.30
2023-07-21T10:07:38.514Z,25.30
2023-07-21T10:10:06.967Z,25.20
2023-07-21T10:12:48.022Z,25.20
2023-07-21T10:15:18.988Z,25.20
2023-07-21T10:17:59.262Z,25.20
2023-07-21T10:20:37.240Z,25.10
2023-07-21T10:23:04.316Z,25.10
2023-07-21T10:25:45.782Z,25.10
2023-07-21T10:28:13.331Z,25.10
2023-07-21T10:30:40.516Z,25.10
2023-07-21T10:33:14.514Z,25.00
2023-07-21T10:35:41.309Z,25.00
2023-07-21T10:38:14.660Z,25.00
2023-07-21T10:40:45.083Z,25.00
2023-07-21T10:43:12.157Z,25.10
2023-07-21T10:45:39.393Z,25.20
2023-07-21T10:48:13.067Z,25.30
2023-07-21T10:50:43.629Z,25.40
2023-07-21T10:53:12.969Z,25.40
2023-07-21T10:55:41.284Z,25.40
2023-07-21T10:58:08.324Z,25.40
2023-07-21T11:00:46.664Z,25.40
2023-07-21T11:03:13.821Z,25.40
2023-07-21T11:05:40.907Z,25.40
2023-07-21T11:08:11.014Z,25.30
2023-07-21T11:10:40.573Z,25.30
2023-07-21T11:13:09.380Z,25.30
2023-07-21T11:15:36.685Z,25.30
2023-07-21T11:18:04.038Z,25.20
2023-07-21T11:20:31.697Z,25.20
2023-07-21T11:22:59.129Z,25.20
2023-07-21T11:25:26.166Z,25.20
2023-07-21T11:27:53.186Z,25.20
2023-07-21T11:30:20.289Z,25.10
2023-07-21T11:32:47.805Z,25.10
2023-07-21T11:35:14.872Z,25.10
2023-07-21T11:37:42.415Z,25.20
2023-07-21T11:40:26.326Z,25.30
2023-07-21T11:42:54.306Z,25.40
2023-07-21T11:45:36.600Z,25.40
2023-07-21T11:48:10.708Z,25.50
2023-07-21T11:50:38.303Z,25.50
2023-07-21T11:53:06.855Z,25.50
2023-07-21T11:55:33.942Z,25.50
2023-07-21T11:58:01.028Z,25.50
2023-07-21T12:00:28.830Z,25.50
2023-07-21T12:03:02.134Z,25.40
2023-07-21T12:05:29.359Z,25.40
2023-07-21T12:07:56.409Z,25.40
2023-07-21T12:10:24.238Z,25.40
2023-07-21T12:12:53.523Z,25.30
2023-07-21T12:15:20.581Z,25.30
2023-07-21T12:17:50.354Z,25.30
2023-07-21T12:20:18.541Z,25.30
2023-07-21T12:22:46.628Z,25.30
2023-07-21T12:25:15.260Z,25.20
2023-07-21T12:27:42.588Z,25.20
2023-07-21T12:30:12.473Z,25.30
2023-07-21T12:32:39.802Z,25.40
2023-07-21T12:35:07.176Z,25.50
2023-07-21T12:37:35.566Z,25.60
2023-07-21T12:40:02.375Z,25.60
2023-07-21T12:42:30.961Z,25.60
2023-07-21T12:44:57.764Z,25.60
2023-07-21T12:47:24.709Z,25.60
2023-07-21T12:49:51.786Z,25.60
2023-07-21T12:52:18.615Z,25.60
2023-07-21T12:54:46.966Z,25.50
2023-07-21T12:57:13.873Z,25.50
2023-07-21T12:59:40.936Z,25.50
2023-07-21T13:02:08.166Z,25.50
2023-07-21T13:04:36.290Z,25.40
2023-07-21T13:07:10.855Z,25.40
2023-07-21T13:09:37.899Z,25.40
2023-07-21T13:12:05.030Z,25.40
2023-07-21T13:14:33.181Z,25.40
2023-07-21T13:17:00.320Z,25.30
2023-07-21T13:19:27.388Z,25.30
2023-07-21T13:21:54.432Z,25.40
2023-07-21T13:24:21.815Z,25.40
2023-07-21T13:26:48.932Z,25.40
2023-07-21T13:29:16.020Z,25.50
2023-07-21T13:31:43.432Z,25.60
2023-07-21T13:34:10.502Z,25.60
2023-07-21T13:36:37.316Z,25.70
2023-07-21T13:39:04.368Z,25.70
2023-07-21T13:41:32.927Z,25.70
2023-07-21T13:43:59.953Z,25.60
2023-07-21T13:46:27.424Z,25.60
2023-07-21T13:48:54.839Z,25.60
2023-07-21T13:51:22.228Z,25.60
2023-07-21T13:53:50.394Z,25.50
2023-07-21T13:56:18.188Z,25.50
2023-07-21T13:58:44.994Z,25.50
2023-07-21T14:01:13.128Z,25.50
2023-07-21T14:03:40.629Z,25.50
2023-07-21T14:06:07.772Z,25.40
2023-07-21T14:08:34.646Z,25.40
2023-07-21T14:11:01.666Z,25.40
2023-07-21T14:13:28.450Z,25.40
2023-07-21T14:15:55.460Z,25.50
2023-07-21T14:18:24.337Z,25.50
2023-07-21T14:20:51.176Z,25.60
2023-07-21T14:23:19.845Z,25.70
2023-07-21T14:25:46.894Z,25.70
2023-07-21T14:28:13.958Z,25.80
2023-07-21T14:30:40.838Z,25.80
2023-07-21T14:33:07.946Z,25.80
2023-07-21T14:35:35.029Z,25.70
2023-07-21T14:38:02.893Z,25.70
2023-07-21T14:40:29.914Z,25.70
2023-07-21T14:42:56.645Z,25.60
2023-07-21T14:45:23.656Z,25.60
2023-07-21T14:47:50.982Z,25.60
2023-07-21T14:50:23.143Z,25.60
2023-07-21T14:52:50.135Z,25.50
2023-07-21T14:55:17.338Z,25.50
2023-07-21T14:57:44.396Z,25.50
2023-07-21T15:00:15.075Z,25.50
2023-07-21T15:02:42.355Z,25.50
2023-07-21T15:05:09.496Z,25.40
2023-07-21T15:07:36.560Z,25.40
2023-07-21T15:10:03.395Z,25.50
2023-07-21T15:12:30.480Z,25.50
2023-07-21T15:14:57.903Z,25.60
2023-07-21T15:17:25.223Z,25.70
2023-07-21T15:19:52.449Z,25.70
2023-07-21T15:22:20.656Z,25.80
2023-07-21T15:24:47.841Z,25.80
2023-07-21T15:27:14.862Z,25.80
2023-07-21T15:29:41.692Z,25.80
2023-07-21T15:32:08.755Z,25.80
2023-07-21T15:34:36.100Z,25.70
2023-07-21T15:37:03.110Z,25.70
2023-07-21T15:39:29.891Z,25.60
2023-07-21T15:41:56.893Z,25.60
2023-07-21T15:44:24.045Z,25.60
2023-07-21T15:46:51.181Z,25.60
2023-07-21T15:49:18.028Z,25.60
2023-07-21T15:51:44.883Z,25.50
2023-07-21T15:54:17.414Z,25.50
2023-07-21T15:56:45.430Z,25.40
2023-07-21T15:59:12.468Z,25.50
2023-07-21T16:01:39.535Z,25.50
2023-07-21T16:04:07.034Z,25.60
2023-07-21T16:06:33.746Z,25.60
2023-07-21T16:09:01.638Z,25.70
2023-07-21T16:11:29.183Z,25.80
2023-07-21T16:13:56.373Z,25.90
2023-07-21T16:16:23.187Z,26.00
2023-07-21T16:18:50.507Z,26.00
2023-07-21T16:21:18.807Z,26.00
2023-07-21T16:23:45.728Z,26.00
2023-07-21T16:26:16.809Z,25.90
2023-07-21T16:28:44.987Z,25.80
2023-07-21T16:31:11.798Z,25.80
2023-07-21T16:33:38.881Z,25.70
2023-07-21T16:36:06.285Z,25.70
2023-07-21T16:38:33.184Z,25.70
2023-07-21T16:41:05.758Z,25.70
2023-07-21T16:43:32.709Z,25.60
2023-07-21T16:46:00.269Z,25.60
2023-07-21T16:48:30.422Z,25.60
2023-07-21T16:50:57.563Z,25.60
2023-07-21T16:53:25.772Z,25.60
2023-07-21T16:55:52.779Z,25.60
2023-07-21T16:58:20.560Z,25.60
2023-07-21T17:00:47.315Z,25.70
2023-07-21T17:03:14.661Z,25.80
2023-07-21T17:05:41.514Z,25.80
2023-07-21T17:08:08.938Z,25.90
2023-07-21T17:10:36.067Z,25.90
2023-07-21T17:13:03.132Z,25.80
2023-07-21T17:15:30.181Z,25.80
2023-07-21T17:18:00.661Z,25.80
2023-07-21T17:20:28.002Z,25.80
2023-07-21T17:22:54.747Z,25.70
2023-07-21T17:25:22.123Z,25.70
2023-07-21T17:27:49.867Z,25.70
2023-07-21T17:30:17.183Z,25.60
2023-07-21T17:32:45.529Z,25.60
2023-07-21T17:35:13.328Z,25.60
2023-07-21T17:37:40.687Z,25.60
2023-07-21T17:40:12.523Z,25.60
2023-07-21T17:42:39.932Z,25.50
2023-07-21T17:45:08.188Z,25.50
2023-07-21T17:47:36.032Z,25.50
2023-07-21T17:50:04.880Z,25.60
2023-07-21T17:52:31.928Z,25.60
2023-07-21T17:54:58.759Z,25.70
2023-07-21T17:57:25.538Z,25.80
2023-07-21T17:59:53.747Z,25.80
2023-07-21T18:02:20.637Z,25.80
2023-07-21T18:04:47.657Z,25.80
2023-07-21T18:07:14.645Z,25.80
2023-07-21T18:09:41.629Z,25.80
2023-07-21T18:12:09.117Z,25.80
2023-07-21T18:14:36.244Z,25.70
2023-07-21T18:17:03.160Z,25.70
2023-07-21T18:19:30.181Z,25.60
2023-07-21T18:21:57.079Z,25.60
2023-07-21T18:24:24.272Z,25.60
2023-07-21T18:26:51.450Z,25.60
2023-07-21T18:29:19.030Z,25.60
2023-07-21T18:31:46.114Z,25.50
2023-07-21T18:34:13.271Z,25.50
2023-07-21T18:36:40.118Z,25.50
2023-07-21T18:39:07.327Z,25.50
2023-07-21T18:41:34.530Z,25.50
2023-07-21T18:44:01.355Z,25.50
2023-07-21T18:46:28.823Z,25.60
2023-07-21T18:48:56.774Z,25.60
2023-07-21T18:51:23.852Z,25.70
2023-07-21T18:53:51.088Z,25.80
2023-07-21T18:56:18.122Z,25.80
2023-07-21T18:58:45.109Z,25.80
2023-07-21T19:01:12.077Z,25.80
2023-07-21T19:03:38.937Z,25.80
2023-07-21T19:06:06.317Z,25.80
2023-07-21T19:08:33.415Z,25.70
2023-07-21T19:11:00.416Z,25.70
2023-07-21T19:13:27.328Z,25.60
2023-07-21T19:15:54.476Z,25.60
2023-07-21T19:18:21.518Z,25.60
2023-07-21T19:20:48.367Z,25.60
2023-07-21T19:23:15.074Z,25.60
2023-07-21T19:25:50.307Z,25.50
2023-07-21T19:28:17.291Z,25.50
2023-07-21T19:30:44.322Z,25.50
2023-07-21T19:33:11.220Z,25.50
2023-07-21T19:35:38.284Z,25.40
2023-07-21T19:38:05.307Z,25.40
2023-07-21T19:40:32.130Z,25.40
2023-07-21T19:42:59.551Z,25.40
2023-07-21T19:45:26.349Z,25.40
2023-07-21T19:47:53.295Z,25.50
2023-07-21T19:50:20.887Z,25.50
2023-07-21T19:52:49.459Z,25.60
2023-07-21T19:55:17.406Z,25.60
2023-07-21T19:57:44.096Z,25.70
2023-07-21T20:00:12.584Z,25.80
2023-07-21T20:02:39.851Z,25.80
2023-07-21T20:05:07.215Z,25.80
2023-07-21T20:07:34.224Z,25.80
2023-07-21T20:10:00.981Z,25.70
2023-07-21T20:12:28.039Z,25.60
2023-07-21T20:14:55.087Z,25.40
2023-07-21T20:17:22.132Z,25.30
2023-07-21T20:19:50.001Z,25.20
2023-07-21T20:22:18.284Z,25.10
2023-07-21T20:24:45.925Z,25.00
2023-07-21T20:27:12.689Z,24.90
2023-07-21T20:29:39.764Z,24.80
2023-07-21T20:32:07.827Z,24.80
2023-07-21T20:34:34.911Z,24.70
2023-07-21T20:37:01.997Z,24.60
2023-07-21T20:39:29.147Z,24.60
2023-07-21T20:41:56.249Z,24.60
2023-07-21T20:44:24.324Z,24.60
2023-07-21T20:46:51.411Z,24.50
2023-07-21T20:49:18.211Z,24.40
2023-07-21T20:51:45.245Z,24.40
2023-07-21T20:54:12.187Z,24.40
2023-07-21T20:56:39.277Z,24.30
2023-07-21T20:59:06.067Z,24.30
2023-07-21T21:01:33.173Z,24.30
2023-07-21T21:04:00.319Z,24.20
2023-07-21T21:06:27.874Z,24.20
2023-07-21T21:08:54.862Z,24.20
2023-07-21T21:11:21.900Z,24.10
2023-07-21T21:13:48.650Z,24.10
2023-07-21T21:16:15.707Z,24.10
2023-07-21T21:18:42.950Z,24.20
2023-07-21T21:21:10.132Z,24.30
2023-07-21T21:23:37.160Z,24.40
2023-07-21T21:26:04.226Z,24.40
2023-07-21T21:28:31.496Z,24.40
2023-07-21T21:30:59.210Z,24.30
2023-07-21T21:33:26.523Z,24.30
2023-07-21T21:35:53.752Z,24.20
2023-07-21T21:38:21.833Z,24.20
2023-07-21T21:40:49.194Z,24.10
2023-07-21T21:43:16.021Z,24.10
2023-07-21T21:45:42.984Z,24.10
2023-07-21T21:48:10.056Z,24.00
2023-07-21T21:50:38.723Z,23.90
2023-07-21T21:53:05.640Z,23.80
2023-07-21T21:55:32.683Z,23.80
2023-07-21T21:57:59.740Z,23.80
2023-07-21T22:00:26.742Z,23.70
2023-07-21T22:02:53.888Z,23.70
2023-07-21T22:05:20.933Z,23.70
2023-07-21T22:07:47.909Z,23.70
2023-07-21T22:10:14.930Z,23.60
2023-07-21T22:12:42.020Z,23.60
2023-07-21T22:15:09.112Z,23.60
2023-07-21T22:17:36.245Z,23.60
2023-07-21T22:20:11.004Z,23.60
2023-07-21T22:22:38.819Z,23.50
2023-07-21T22:25:06.528Z,23.50
2023-07-21T22:27:33.736Z,23.50
2023-07-21T22:30:00.944Z,23.50
2023-07-21T22:32:28.074Z,23.40
2023-07-21T22:34:54.839Z,23.40
2023-07-21T22:37:21.605Z,23.40
2023-07-21T22:39:48.660Z,23.50
2023-07-21T22:42:15.700Z,23.40
2023-07-21T22:44:42.859Z,23.40
2023-07-21T22:47:11.950Z,23.30
2023-07-21T22:49:39.018Z,23.40
2023-07-21T22:52:07.687Z,23.50
2023-07-21T22:54:36.059Z,23.60
2023-07-21T22:57:03.489Z,23.70
2023-07-21T22:59:30.906Z,23.80
2023-07-21T23:01:57.916Z,23.80
2023-07-21T23:04:24.922Z,23.80
2023-07-21T23:06:53.306Z,23.80
2023-07-21T23:09:20.824Z,23.80
2023-07-21T23:11:47.866Z,23.70
2023-07-21T23:14:15.278Z,23.60
2023-07-21T23:16:42.271Z,23.60
2023-07-21T23:19:09.456Z,23.50
2023-07-21T23:21:36.469Z,23.50
2023-07-21T23:24:04.650Z,23.40
2023-07-21T23:26:31.648Z,23.40
2023-07-21T23:28:58.448Z,23.40
2023-07-21T23:31:26.019Z,23.40
2023-07-21T23:33:53.231Z,23.30
2023-07-21T23:36:20.239Z,23.30
2023-07-21T23:38:47.465Z,23.30
2023-07-21T23:41:14.588Z,23.30
2023-07-21T23:43:41.669Z,23.30
2023-07-21T23:46:08.470Z,23.30
2023-07-21T23:48:35.350Z,23.20
2023-07-21T23:51:02.169Z,23.20
2023-07-21T23:53:29.541Z,23.20
2023-07-21T23:55:56.593Z,23.20
2023-07-21T23:58:23.719Z,23.20
